sensor_id;sensor_type;location;lat;lon;timestamp;pressure;altitude;pressure_sealevel;temperature;humidity
69127;BME280;56688;50.234;19.292;2023-02-15T00:01:23;100238.24;;;3.03;75.01
69127;BME280;56688;50.234;19.292;2023-02-15T00:03:50;100235.81;;;3.02;75.17
69127;BME280;56688;50.234;19.292;2023-02-15T00:06:18;100237.76;;;3.04;75.40
69127;BME280;56688;50.234;19.292;2023-02-15T00:08:44;100237.67;;;3.09;75.45
69127;BME280;56688;50.234;19.292;2023-02-15T00:11:14;100228.08;;;3.13;75.24
69127;BME280;56688;50.234;19.292;2023-02-15T00:13:42;100226.30;;;3.16;75.37
69127;BME280;56688;50.234;19.292;2023-02-15T00:16:11;100229.40;;;3.20;75.31
69127;BME280;56688;50.234;19.292;2023-02-15T00:18:39;100228.85;;;3.23;75.22
69127;BME280;56688;50.234;19.292;2023-02-15T00:21:08;100227.75;;;3.24;75.20
69127;BME280;56688;50.234;19.292;2023-02-15T00:23:36;100230.43;;;3.23;75.12
69127;BME280;56688;50.234;19.292;2023-02-15T00:26:05;100225.45;;;3.18;75.21
69127;BME280;56688;50.234;19.292;2023-02-15T00:28:33;100219.07;;;3.16;75.36
69127;BME280;56688;50.234;19.292;2023-02-15T00:31:09;100212.65;;;3.15;75.41
69127;BME280;56688;50.234;19.292;2023-02-15T00:33:38;100209.41;;;3.18;75.53
69127;BME280;56688;50.234;19.292;2023-02-15T00:36:07;100208.64;;;3.22;75.38
69127;BME280;56688;50.234;19.292;2023-02-15T00:38:35;100202.23;;;3.28;75.36
69127;BME280;56688;50.234;19.292;2023-02-15T00:41:04;100195.09;;;3.32;75.04
69127;BME280;56688;50.234;19.292;2023-02-15T00:43:32;100193.06;;;3.37;74.74
69127;BME280;56688;50.234;19.292;2023-02-15T00:46:01;100189.30;;;3.34;74.74
69127;BME280;56688;50.234;19.292;2023-02-15T00:48:29;100192.79;;;3.35;74.49
69127;BME280;56688;50.234;19.292;2023-02-15T00:50:58;100187.70;;;3.35;74.57
69127;BME280;56688;50.234;19.292;2023-02-15T00:53:26;100187.95;;;3.34;74.58
69127;BME280;56688;50.234;19.292;2023-02-15T00:55:54;100181.73;;;3.32;74.40
69127;BME280;56688;50.234;19.292;2023-02-15T00:58:21;100179.52;;;3.31;74.36
69127;BME280;56688;50.234;19.292;2023-02-15T01:00:49;100180.32;;;3.30;74.37
69127;BME280;56688;50.234;19.292;2023-02-15T01:03:17;100180.17;;;3.32;74.50
69127;BME280;56688;50.234;19.292;2023-02-15T01:05:46;100183.59;;;3.33;74.42
69127;BME280;56688;50.234;19.292;2023-02-15T01:08:14;100182.18;;;3.33;74.58
69127;BME280;56688;50.234;19.292;2023-02-15T01:10:41;100184.02;;;3.35;74.45
69127;BME280;56688;50.234;19.292;2023-02-15T01:13:10;100184.65;;;3.36;74.59
69127;BME280;56688;50.234;19.292;2023-02-15T01:15:37;100183.52;;;3.37;74.27
69127;BME280;56688;50.234;19.292;2023-02-15T01:18:04;100181.73;;;3.34;74.16
69127;BME280;56688;50.234;19.292;2023-02-15T01:20:34;100181.31;;;3.33;74.42
69127;BME280;56688;50.234;19.292;2023-02-15T01:23:03;100181.95;;;3.31;74.62
69127;BME280;56688;50.234;19.292;2023-02-15T01:25:30;100173.52;;;3.31;74.45
69127;BME280;56688;50.234;19.292;2023-02-15T01:27:56;100171.58;;;3.31;74.55
69127;BME280;56688;50.234;19.292;2023-02-15T01:30:23;100172.77;;;3.32;74.31
69127;BME280;56688;50.234;19.292;2023-02-15T01:32:50;100168.52;;;3.32;74.10
69127;BME280;56688;50.234;19.292;2023-02-15T01:35:17;100168.05;;;3.37;74.00
69127;BME280;56688;50.234;19.292;2023-02-15T01:37:45;100163.11;;;3.40;73.75
69127;BME280;56688;50.234;19.292;2023-02-15T01:40:15;100161.13;;;3.43;73.57
69127;BME280;56688;50.234;19.292;2023-02-15T01:42:43;100161.67;;;3.43;73.09
69127;BME280;56688;50.234;19.292;2023-02-15T01:45:26;100164.45;;;3.41;72.94
69127;BME280;56688;50.234;19.292;2023-02-15T01:47:58;100161.95;;;3.41;72.93
69127;BME280;56688;50.234;19.292;2023-02-15T01:50:34;100160.26;;;3.43;72.96
69127;BME280;56688;50.234;19.292;2023-02-15T01:53:08;100154.25;;;3.43;72.88
69127;BME280;56688;50.234;19.292;2023-02-15T01:55:40;100148.77;;;3.43;73.07
69127;BME280;56688;50.234;19.292;2023-02-15T01:58:09;100147.89;;;3.43;72.99
69127;BME280;56688;50.234;19.292;2023-02-15T02:00:36;100144.23;;;3.42;72.98
69127;BME280;56688;50.234;19.292;2023-02-15T02:03:03;100141.59;;;3.45;73.03
69127;BME280;56688;50.234;19.292;2023-02-15T02:05:31;100136.23;;;3.47;72.87
69127;BME280;56688;50.234;19.292;2023-02-15T02:08:01;100126.24;;;3.48;72.70
69127;BME280;56688;50.234;19.292;2023-02-15T02:10:30;100123.05;;;3.49;72.49
69127;BME280;56688;50.234;19.292;2023-02-15T02:13:00;100120.84;;;3.47;72.38
69127;BME280;56688;50.234;19.292;2023-02-15T02:18:25;100121.55;;;3.44;72.62
69127;BME280;56688;50.234;19.292;2023-02-15T02:34:15;100106.10;;;3.39;72.86
69127;BME280;56688;50.234;19.292;2023-02-15T02:39:36;100108.27;;;3.41;72.82
69127;BME280;56688;50.234;19.292;2023-02-15T02:42:11;100105.08;;;3.39;72.95
69127;BME280;56688;50.234;19.292;2023-02-15T02:44:48;100099.73;;;3.36;72.72
69127;BME280;56688;50.234;19.292;2023-02-15T02:50:03;100092.41;;;3.27;73.00
69127;BME280;56688;50.234;19.292;2023-02-15T02:52:39;100086.05;;;3.25;72.99
69127;BME280;56688;50.234;19.292;2023-02-15T02:55:11;100079.21;;;3.25;73.32
69127;BME280;56688;50.234;19.292;2023-02-15T02:57:46;100077.44;;;3.25;73.24
69127;BME280;56688;50.234;19.292;2023-02-15T03:00:15;100076.70;;;3.25;73.56
69127;BME280;56688;50.234;19.292;2023-02-15T03:02:44;100075.42;;;3.26;73.40
69127;BME280;56688;50.234;19.292;2023-02-15T03:05:18;100074.63;;;3.25;73.51
69127;BME280;56688;50.234;19.292;2023-02-15T03:07:49;100078.64;;;3.25;73.28
69127;BME280;56688;50.234;19.292;2023-02-15T03:10:20;100076.98;;;3.21;73.32
69127;BME280;56688;50.234;19.292;2023-02-15T03:12:50;100070.24;;;3.17;73.45
69127;BME280;56688;50.234;19.292;2023-02-15T03:15:23;100065.80;;;3.12;73.71
69127;BME280;56688;50.234;19.292;2023-02-15T03:17:56;100062.56;;;3.08;73.76
69127;BME280;56688;50.234;19.292;2023-02-15T03:20:32;100063.58;;;3.09;74.04
69127;BME280;56688;50.234;19.292;2023-02-15T03:23:05;100065.09;;;3.10;74.12
69127;BME280;56688;50.234;19.292;2023-02-15T03:25:38;100069.96;;;3.10;74.01
69127;BME280;56688;50.234;19.292;2023-02-15T03:28:09;100070.13;;;3.13;74.05
69127;BME280;56688;50.234;19.292;2023-02-15T03:30:39;100074.44;;;3.15;73.88
69127;BME280;56688;50.234;19.292;2023-02-15T03:33:09;100075.43;;;3.10;73.93
69127;BME280;56688;50.234;19.292;2023-02-15T03:38:29;100075.87;;;3.03;73.81
69127;BME280;56688;50.234;19.292;2023-02-15T03:40:59;100078.17;;;2.98;74.14
69127;BME280;56688;50.234;19.292;2023-02-15T03:43:51;100076.04;;;2.96;74.24
69127;BME280;56688;50.234;19.292;2023-02-15T03:46:32;100073.92;;;2.93;74.29
69127;BME280;56688;50.234;19.292;2023-02-15T03:51:37;100076.18;;;2.91;74.40
69127;BME280;56688;50.234;19.292;2023-02-15T03:54:09;100079.92;;;2.90;74.74
69127;BME280;56688;50.234;19.292;2023-02-15T03:56:39;100074.16;;;2.90;74.67
69127;BME280;56688;50.234;19.292;2023-02-15T03:59:07;100070.38;;;2.88;74.59
69127;BME280;56688;50.234;19.292;2023-02-15T04:02:09;100068.04;;;2.84;74.77
69127;BME280;56688;50.234;19.292;2023-02-15T04:04:43;100073.67;;;2.81;74.84
69127;BME280;56688;50.234;19.292;2023-02-15T04:07:11;100072.79;;;2.81;75.02
69127;BME280;56688;50.234;19.292;2023-02-15T04:09:38;100074.14;;;2.85;75.20
69127;BME280;56688;50.234;19.292;2023-02-15T04:12:21;100070.04;;;2.86;75.08
69127;BME280;56688;50.234;19.292;2023-02-15T04:14:48;100074.63;;;2.85;74.87
69127;BME280;56688;50.234;19.292;2023-02-15T04:17:31;100076.77;;;2.85;75.02
69127;BME280;56688;50.234;19.292;2023-02-15T04:19:58;100078.67;;;2.85;75.10
69127;BME280;56688;50.234;19.292;2023-02-15T04:22:40;100078.09;;;2.83;75.10
69127;BME280;56688;50.234;19.292;2023-02-15T04:25:24;100083.52;;;2.81;75.04
69127;BME280;56688;50.234;19.292;2023-02-15T04:28:04;100085.02;;;2.79;75.21
69127;BME280;56688;50.234;19.292;2023-02-15T04:30:47;100082.30;;;2.78;75.43
69127;BME280;56688;50.234;19.292;2023-02-15T04:33:14;100079.16;;;2.80;75.38
69127;BME280;56688;50.234;19.292;2023-02-15T04:35:43;100076.14;;;2.81;75.10
69127;BME280;56688;50.234;19.292;2023-02-15T04:38:11;100076.73;;;2.80;75.40
69127;BME280;56688;50.234;19.292;2023-02-15T04:40:38;100080.64;;;2.82;75.39
69127;BME280;56688;50.234;19.292;2023-02-15T04:43:05;100081.08;;;2.84;75.28
69127;BME280;56688;50.234;19.292;2023-02-15T04:45:31;100076.09;;;2.79;75.32
69127;BME280;56688;50.234;19.292;2023-02-15T04:47:58;100075.77;;;2.75;75.63
69127;BME280;56688;50.234;19.292;2023-02-15T04:50:25;100079.23;;;2.76;75.45
69127;BME280;56688;50.234;19.292;2023-02-15T04:52:52;100080.93;;;2.80;75.37
69127;BME280;56688;50.234;19.292;2023-02-15T04:55:19;100078.40;;;2.81;75.31
69127;BME280;56688;50.234;19.292;2023-02-15T04:57:46;100074.16;;;2.82;75.28
69127;BME280;56688;50.234;19.292;2023-02-15T05:00:13;100075.42;;;2.78;75.31
69127;BME280;56688;50.234;19.292;2023-02-15T05:02:40;100072.98;;;2.75;75.35
69127;BME280;56688;50.234;19.292;2023-02-15T05:05:07;100068.92;;;2.70;75.60
69127;BME280;56688;50.234;19.292;2023-02-15T05:07:35;100070.23;;;2.64;75.81
69127;BME280;56688;50.234;19.292;2023-02-15T05:10:02;100069.05;;;2.57;76.04
69127;BME280;56688;50.234;19.292;2023-02-15T05:12:30;100064.42;;;2.56;75.70
69127;BME280;56688;50.234;19.292;2023-02-15T05:14:57;100062.65;;;2.53;75.96
69127;BME280;56688;50.234;19.292;2023-02-15T05:17:24;100067.80;;;2.52;76.02
69127;BME280;56688;50.234;19.292;2023-02-15T05:19:51;100070.85;;;2.51;76.05
69127;BME280;56688;50.234;19.292;2023-02-15T05:22:17;100071.12;;;2.50;76.60
69127;BME280;56688;50.234;19.292;2023-02-15T05:24:44;100066.52;;;2.48;76.35
69127;BME280;56688;50.234;19.292;2023-02-15T05:27:26;100067.61;;;2.44;76.45
69127;BME280;56688;50.234;19.292;2023-02-15T05:30:09;100072.35;;;2.44;76.58
69127;BME280;56688;50.234;19.292;2023-02-15T05:32:38;100073.66;;;2.43;76.64
69127;BME280;56688;50.234;19.292;2023-02-15T05:35:06;100071.26;;;2.42;76.94
69127;BME280;56688;50.234;19.292;2023-02-15T05:37:34;100071.91;;;2.43;76.96
69127;BME280;56688;50.234;19.292;2023-02-15T05:40:00;100074.90;;;2.41;77.02
69127;BME280;56688;50.234;19.292;2023-02-15T05:42:27;100071.29;;;2.39;76.98
69127;BME280;56688;50.234;19.292;2023-02-15T05:44:54;100071.89;;;2.38;77.12
69127;BME280;56688;50.234;19.292;2023-02-15T05:47:21;100072.42;;;2.38;77.19
69127;BME280;56688;50.234;19.292;2023-02-15T05:49:48;100073.04;;;2.39;77.31
69127;BME280;56688;50.234;19.292;2023-02-15T05:52:14;100072.83;;;2.42;77.28
69127;BME280;56688;50.234;19.292;2023-02-15T05:54:41;100072.02;;;2.44;77.15
69127;BME280;56688;50.234;19.292;2023-02-15T05:57:08;100071.32;;;2.44;77.13
69127;BME280;56688;50.234;19.292;2023-02-15T05:59:35;100066.16;;;2.45;77.45
69127;BME280;56688;50.234;19.292;2023-02-15T06:02:02;100070.08;;;2.47;77.19
69127;BME280;56688;50.234;19.292;2023-02-15T06:04:29;100075.73;;;2.38;76.81
69127;BME280;56688;50.234;19.292;2023-02-15T06:06:56;100072.48;;;2.32;77.11
69127;BME280;56688;50.234;19.292;2023-02-15T06:09:22;100078.39;;;2.30;77.42
69127;BME280;56688;50.234;19.292;2023-02-15T06:11:49;100083.23;;;2.34;77.82
69127;BME280;56688;50.234;19.292;2023-02-15T06:14:16;100082.08;;;2.38;77.78
69127;BME280;56688;50.234;19.292;2023-02-15T06:16:43;100088.13;;;2.42;77.90
69127;BME280;56688;50.234;19.292;2023-02-15T06:19:10;100092.23;;;2.41;77.68
69127;BME280;56688;50.234;19.292;2023-02-15T06:21:37;100091.98;;;2.40;77.47
69127;BME280;56688;50.234;19.292;2023-02-15T06:24:04;100087.27;;;2.42;77.68
69127;BME280;56688;50.234;19.292;2023-02-15T06:26:30;100089.25;;;2.47;77.70
69127;BME280;56688;50.234;19.292;2023-02-15T06:28:57;100085.11;;;2.51;77.61
69127;BME280;56688;50.234;19.292;2023-02-15T06:31:24;100081.04;;;2.55;77.70
69127;BME280;56688;50.234;19.292;2023-02-15T06:33:51;100080.00;;;2.59;77.45
69127;BME280;56688;50.234;19.292;2023-02-15T06:36:18;100081.45;;;2.62;77.48
69127;BME280;56688;50.234;19.292;2023-02-15T06:38:44;100076.14;;;2.60;77.37
69127;BME280;56688;50.234;19.292;2023-02-15T06:41:11;100081.98;;;2.62;77.35
69127;BME280;56688;50.234;19.292;2023-02-15T06:43:38;100084.08;;;2.62;77.23
69127;BME280;56688;50.234;19.292;2023-02-15T06:46:06;100082.09;;;2.68;77.37
69127;BME280;56688;50.234;19.292;2023-02-15T06:48:33;100089.91;;;2.75;77.56
69127;BME280;56688;50.234;19.292;2023-02-15T06:51:00;100087.77;;;2.81;77.14
69127;BME280;56688;50.234;19.292;2023-02-15T06:53:26;100089.33;;;2.81;76.91
69127;BME280;56688;50.234;19.292;2023-02-15T06:56:01;100090.16;;;2.79;76.76
69127;BME280;56688;50.234;19.292;2023-02-15T06:58:29;100089.82;;;2.76;76.75
69127;BME280;56688;50.234;19.292;2023-02-15T07:00:56;100088.73;;;2.74;76.89
69127;BME280;56688;50.234;19.292;2023-02-15T07:03:23;100088.04;;;2.76;76.69
69127;BME280;56688;50.234;19.292;2023-02-15T07:05:54;100084.06;;;2.81;76.74
69127;BME280;56688;50.234;19.292;2023-02-15T07:08:22;100085.99;;;2.84;76.35
69127;BME280;56688;50.234;19.292;2023-02-15T07:10:50;100085.44;;;2.84;76.43
69127;BME280;56688;50.234;19.292;2023-02-15T07:13:17;100083.75;;;2.86;76.59
69127;BME280;56688;50.234;19.292;2023-02-15T07:15:45;100079.10;;;2.87;76.25
69127;BME280;56688;50.234;19.292;2023-02-15T07:18:13;100078.56;;;2.82;76.65
69127;BME280;56688;50.234;19.292;2023-02-15T07:20:40;100073.95;;;2.90;76.57
69127;BME280;56688;50.234;19.292;2023-02-15T07:23:08;100074.29;;;3.01;76.31
69127;BME280;56688;50.234;19.292;2023-02-15T07:25:35;100071.95;;;3.07;76.22
69127;BME280;56688;50.234;19.292;2023-02-15T07:28:03;100069.73;;;3.11;76.05
69127;BME280;56688;50.234;19.292;2023-02-15T07:30:30;100070.10;;;3.13;75.75
69127;BME280;56688;50.234;19.292;2023-02-15T07:32:57;100070.16;;;3.13;75.61
69127;BME280;56688;50.234;19.292;2023-02-15T07:35:46;100069.50;;;3.15;75.69
69127;BME280;56688;50.234;19.292;2023-02-15T07:38:13;100070.41;;;3.19;75.79
69127;BME280;56688;50.234;19.292;2023-02-15T07:40:40;100066.54;;;3.19;75.60
69127;BME280;56688;50.234;19.292;2023-02-15T07:43:07;100065.83;;;3.22;75.21
69127;BME280;56688;50.234;19.292;2023-02-15T07:45:34;100059.40;;;3.23;75.13
69127;BME280;56688;50.234;19.292;2023-02-15T07:48:01;100061.63;;;3.27;74.82
69127;BME280;56688;50.234;19.292;2023-02-15T07:50:28;100063.39;;;3.29;74.80
69127;BME280;56688;50.234;19.292;2023-02-15T07:52:55;100063.48;;;3.36;74.88
69127;BME280;56688;50.234;19.292;2023-02-15T07:55:22;100066.04;;;3.43;75.10
69127;BME280;56688;50.234;19.292;2023-02-15T07:57:50;100066.69;;;3.48;74.72
69127;BME280;56688;50.234;19.292;2023-02-15T08:00:18;100062.60;;;3.51;74.31
69127;BME280;56688;50.234;19.292;2023-02-15T08:02:48;100062.86;;;3.53;74.03
69127;BME280;56688;50.234;19.292;2023-02-15T08:05:36;100060.39;;;3.55;74.05
69127;BME280;56688;50.234;19.292;2023-02-15T08:08:03;100060.55;;;3.61;73.75
69127;BME280;56688;50.234;19.292;2023-02-15T08:10:30;100054.95;;;3.70;73.46
69127;BME280;56688;50.234;19.292;2023-02-15T08:13:13;100049.47;;;3.83;73.49
69127;BME280;56688;50.234;19.292;2023-02-15T08:15:40;100045.23;;;3.93;72.88
69127;BME280;56688;50.234;19.292;2023-02-15T08:18:06;100044.45;;;3.99;72.68
69127;BME280;56688;50.234;19.292;2023-02-15T08:20:33;100043.16;;;4.05;72.66
69127;BME280;56688;50.234;19.292;2023-02-15T08:23:00;100044.10;;;4.11;72.67
69127;BME280;56688;50.234;19.292;2023-02-15T08:25:27;100043.03;;;4.14;72.55
69127;BME280;56688;50.234;19.292;2023-02-15T08:27:53;100036.42;;;4.20;72.44
69127;BME280;56688;50.234;19.292;2023-02-15T08:30:20;100032.76;;;4.30;71.79
69127;BME280;56688;50.234;19.292;2023-02-15T08:32:47;100027.66;;;4.43;71.56
69127;BME280;56688;50.234;19.292;2023-02-15T08:35:14;100028.21;;;4.62;71.43
69127;BME280;56688;50.234;19.292;2023-02-15T08:37:41;100026.37;;;4.80;70.71
69127;BME280;56688;50.234;19.292;2023-02-15T08:40:09;100029.52;;;4.90;69.87
69127;BME280;56688;50.234;19.292;2023-02-15T08:42:36;100025.72;;;4.98;69.51
69127;BME280;56688;50.234;19.292;2023-02-15T08:45:03;100023.94;;;5.17;69.33
69127;BME280;56688;50.234;19.292;2023-02-15T08:47:29;100022.28;;;5.36;68.64
69127;BME280;56688;50.234;19.292;2023-02-15T08:49:56;100023.14;;;5.48;67.78
69127;BME280;56688;50.234;19.292;2023-02-15T08:52:23;100025.10;;;5.68;67.25
69127;BME280;56688;50.234;19.292;2023-02-15T08:54:50;100022.16;;;6.19;67.07
69127;BME280;56688;50.234;19.292;2023-02-15T08:57:16;100018.38;;;6.85;65.46
69127;BME280;56688;50.234;19.292;2023-02-15T08:59:43;100017.56;;;7.26;62.94
69127;BME280;56688;50.234;19.292;2023-02-15T09:02:10;100010.77;;;7.33;61.89
69127;BME280;56688;50.234;19.292;2023-02-15T09:04:37;100010.80;;;7.49;61.52
69127;BME280;56688;50.234;19.292;2023-02-15T09:07:04;100008.58;;;7.85;61.58
69127;BME280;56688;50.234;19.292;2023-02-15T09:09:31;100008.02;;;8.21;59.57
69127;BME280;56688;50.234;19.292;2023-02-15T09:11:58;100002.23;;;8.44;58.51
69127;BME280;56688;50.234;19.292;2023-02-15T09:14:25;100000.14;;;8.97;58.15
69127;BME280;56688;50.234;19.292;2023-02-15T09:16:53;99999.80;;;9.64;56.75
69127;BME280;56688;50.234;19.292;2023-02-15T09:19:21;99989.98;;;10.28;54.62
69127;BME280;56688;50.234;19.292;2023-02-15T09:21:49;99989.73;;;10.93;52.77
69127;BME280;56688;50.234;19.292;2023-02-15T09:24:17;99984.42;;;11.36;51.27
69127;BME280;56688;50.234;19.292;2023-02-15T09:26:47;99985.90;;;11.55;50.17
69127;BME280;56688;50.234;19.292;2023-02-15T09:29:15;99981.55;;;11.71;49.69
69127;BME280;56688;50.234;19.292;2023-02-15T09:31:45;99979.52;;;11.87;49.23
69127;BME280;56688;50.234;19.292;2023-02-15T09:34:14;99978.75;;;12.01;48.70
69127;BME280;56688;50.234;19.292;2023-02-15T09:36:43;99969.38;;;12.22;48.11
69127;BME280;56688;50.234;19.292;2023-02-15T09:39:13;99966.11;;;12.49;47.20
69127;BME280;56688;50.234;19.292;2023-02-15T09:49:53;99952.55;;;12.69;45.96
69127;BME280;56688;50.234;19.292;2023-02-15T09:52:44;99948.91;;;12.61;46.72
69127;BME280;56688;50.234;19.292;2023-02-15T10:14:42;99925.97;;;11.99;48.17
69127;BME280;56688;50.234;19.292;2023-02-15T10:27:19;99916.01;;;12.07;48.00
69127;BME280;56688;50.234;19.292;2023-02-15T10:30:02;99915.21;;;12.05;47.66
69127;BME280;56688;50.234;19.292;2023-02-15T10:32:44;99915.00;;;12.08;47.81
69127;BME280;56688;50.234;19.292;2023-02-15T10:41:03;99902.20;;;12.04;46.73
69127;BME280;56688;50.234;19.292;2023-02-15T10:54:16;99882.32;;;12.05;47.80
69127;BME280;56688;50.234;19.292;2023-02-15T10:57:04;99883.73;;;11.96;48.05
69127;BME280;56688;50.234;19.292;2023-02-15T11:07:47;99870.00;;;11.37;48.64
69127;BME280;56688;50.234;19.292;2023-02-15T11:10:29;99867.89;;;11.40;49.12
69127;BME280;56688;50.234;19.292;2023-02-15T11:13:02;99867.00;;;11.56;48.90
69127;BME280;56688;50.234;19.292;2023-02-15T11:15:36;99858.86;;;11.72;48.55
69127;BME280;56688;50.234;19.292;2023-02-15T11:18:23;99858.75;;;11.93;48.48
69127;BME280;56688;50.234;19.292;2023-02-15T11:20:55;99861.17;;;12.12;47.49
69127;BME280;56688;50.234;19.292;2023-02-15T11:23:25;99860.14;;;12.20;47.25
69127;BME280;56688;50.234;19.292;2023-02-15T11:25:57;99855.96;;;12.35;46.78
69127;BME280;56688;50.234;19.292;2023-02-15T11:28:54;99851.63;;;12.34;46.81
69127;BME280;56688;50.234;19.292;2023-02-15T11:31:26;99848.02;;;12.43;46.95
69127;BME280;56688;50.234;19.292;2023-02-15T11:34:05;99846.81;;;12.60;46.70
69127;BME280;56688;50.234;19.292;2023-02-15T11:36:40;99844.92;;;12.80;45.90
69127;BME280;56688;50.234;19.292;2023-02-15T11:39:10;99839.62;;;12.99;45.91
69127;BME280;56688;50.234;19.292;2023-02-15T11:41:41;99836.34;;;13.11;45.26
69127;BME280;56688;50.234;19.292;2023-02-15T11:44:30;99832.19;;;12.98;45.38
69127;BME280;56688;50.234;19.292;2023-02-15T11:46:59;99832.52;;;13.08;45.16
69127;BME280;56688;50.234;19.292;2023-02-15T11:49:30;99829.29;;;13.20;44.73
69127;BME280;56688;50.234;19.292;2023-02-15T11:51:58;99823.58;;;13.43;45.18
69127;BME280;56688;50.234;19.292;2023-02-15T11:54:30;99818.83;;;13.75;44.41
69127;BME280;56688;50.234;19.292;2023-02-15T11:57:10;99815.45;;;14.04;43.46
69127;BME280;56688;50.234;19.292;2023-02-15T11:59:41;99816.59;;;14.33;42.99
69127;BME280;56688;50.234;19.292;2023-02-15T12:02:17;99813.08;;;14.58;42.08
69127;BME280;56688;50.234;19.292;2023-02-15T12:04:48;99810.55;;;14.58;41.71
69127;BME280;56688;50.234;19.292;2023-02-15T12:07:23;99804.49;;;14.60;42.00
69127;BME280;56688;50.234;19.292;2023-02-15T12:12:28;99793.22;;;14.77;41.07
69127;BME280;56688;50.234;19.292;2023-02-15T12:15:01;99793.67;;;14.93;40.96
69127;BME280;56688;50.234;19.292;2023-02-15T12:17:30;99791.08;;;15.00;40.21
69127;BME280;56688;50.234;19.292;2023-02-15T12:20:02;99789.91;;;14.96;40.01
69127;BME280;56688;50.234;19.292;2023-02-15T12:22:32;99785.30;;;14.95;40.09
69127;BME280;56688;50.234;19.292;2023-02-15T12:25:02;99784.55;;;14.98;39.84
69127;BME280;56688;50.234;19.292;2023-02-15T12:27:32;99781.17;;;15.03;39.67
69127;BME280;56688;50.234;19.292;2023-02-15T12:30:01;99782.28;;;15.11;39.76
69127;BME280;56688;50.234;19.292;2023-02-15T12:32:34;99779.15;;;15.18;38.67
69127;BME280;56688;50.234;19.292;2023-02-15T12:35:09;99774.99;;;15.14;39.33
69127;BME280;56688;50.234;19.292;2023-02-15T12:37:53;99771.55;;;15.39;39.06
69127;BME280;56688;50.234;19.292;2023-02-15T12:42:57;99767.83;;;16.01;38.06
69127;BME280;56688;50.234;19.292;2023-02-15T12:48:12;99760.73;;;16.98;36.53
69127;BME280;56688;50.234;19.292;2023-02-15T12:50:42;99748.80;;;17.34;35.98
69127;BME280;56688;50.234;19.292;2023-02-15T12:53:33;99752.40;;;17.66;35.09
69127;BME280;56688;50.234;19.292;2023-02-15T12:56:26;99744.22;;;18.04;34.68
69127;BME280;56688;50.234;19.292;2023-02-15T12:59:05;99741.02;;;18.38;34.38
69127;BME280;56688;50.234;19.292;2023-02-15T13:01:32;99734.73;;;18.72;33.88
69127;BME280;56688;50.234;19.292;2023-02-15T13:04:03;99729.41;;;19.07;32.90
69127;BME280;56688;50.234;19.292;2023-02-15T13:06:35;99731.14;;;19.17;32.61
69127;BME280;56688;50.234;19.292;2023-02-15T13:09:21;99724.34;;;19.28;32.32
69127;BME280;56688;50.234;19.292;2023-02-15T13:11:52;99725.39;;;19.54;31.69
69127;BME280;56688;50.234;19.292;2023-02-15T13:14:31;99724.30;;;19.78;31.49
69127;BME280;56688;50.234;19.292;2023-02-15T13:17:00;99722.62;;;20.01;30.96
69127;BME280;56688;50.234;19.292;2023-02-15T13:19:36;99724.44;;;20.04;30.78
69127;BME280;56688;50.234;19.292;2023-02-15T13:22:07;99721.08;;;20.01;30.32
69127;BME280;56688;50.234;19.292;2023-02-15T13:24:39;99709.88;;;19.84;30.74
69127;BME280;56688;50.234;19.292;2023-02-15T13:27:14;99709.21;;;19.79;30.92
69127;BME280;56688;50.234;19.292;2023-02-15T13:29:50;99709.24;;;19.91;30.57
69127;BME280;56688;50.234;19.292;2023-02-15T13:32:28;99709.13;;;19.97;30.96
69127;BME280;56688;50.234;19.292;2023-02-15T13:34:59;99704.71;;;20.06;30.93
69127;BME280;56688;50.234;19.292;2023-02-15T13:40:32;99702.16;;;20.13;29.24
69127;BME280;56688;50.234;19.292;2023-02-15T13:43:10;99701.60;;;20.14;29.27
69127;BME280;56688;50.234;19.292;2023-02-15T13:46:01;99698.70;;;20.13;29.98
69127;BME280;56688;50.234;19.292;2023-02-15T13:51:21;99695.58;;;19.64;31.03
69127;BME280;56688;50.234;19.292;2023-02-15T13:54:04;99693.42;;;19.57;30.01
69127;BME280;56688;50.234;19.292;2023-02-15T14:02:26;99688.39;;;19.30;29.57
69127;BME280;56688;50.234;19.292;2023-02-15T14:10:52;99682.19;;;19.76;29.20
69127;BME280;56688;50.234;19.292;2023-02-15T14:16:40;99676.36;;;19.47;29.39
69127;BME280;56688;50.234;19.292;2023-02-15T14:19:46;99673.08;;;19.40;29.50
69127;BME280;56688;50.234;19.292;2023-02-15T14:30:24;99663.52;;;19.25;29.82
69127;BME280;56688;50.234;19.292;2023-02-15T14:32:59;99663.31;;;19.06;30.24
69127;BME280;56688;50.234;19.292;2023-02-15T14:35:29;99659.59;;;18.90;29.88
69127;BME280;56688;50.234;19.292;2023-02-15T14:41:04;99655.63;;;18.33;30.06
69127;BME280;56688;50.234;19.292;2023-02-15T14:46:25;99653.02;;;18.22;30.88
69127;BME280;56688;50.234;19.292;2023-02-15T14:48:59;99653.97;;;17.84;31.14
69127;BME280;56688;50.234;19.292;2023-02-15T14:56:45;99647.20;;;17.52;32.34
69127;BME280;56688;50.234;19.292;2023-02-15T15:01:39;99646.45;;;17.29;32.34
69127;BME280;56688;50.234;19.292;2023-02-15T15:04:11;99646.50;;;17.07;32.79
69127;BME280;56688;50.234;19.292;2023-02-15T15:06:42;99644.56;;;16.87;33.12
69127;BME280;56688;50.234;19.292;2023-02-15T15:11:42;99649.17;;;16.53;33.78
69127;BME280;56688;50.234;19.292;2023-02-15T15:16:58;99649.31;;;15.97;34.77
69127;BME280;56688;50.234;19.292;2023-02-15T15:22:20;99642.13;;;14.64;36.28
69127;BME280;56688;50.234;19.292;2023-02-15T15:24:51;99639.42;;;14.08;37.43
69127;BME280;56688;50.234;19.292;2023-02-15T15:41:25;99639.41;;;10.66;45.60
69127;BME280;56688;50.234;19.292;2023-02-15T15:49:34;99634.66;;;9.12;49.52
69127;BME280;56688;50.234;19.292;2023-02-15T15:52:20;99637.77;;;8.75;50.74
69127;BME280;56688;50.234;19.292;2023-02-15T15:54:51;99640.83;;;8.26;51.70
69127;BME280;56688;50.234;19.292;2023-02-15T15:57:28;99644.10;;;7.90;52.57